SCIE/CCP METAR and TAF weather

Enter ICAO airport designator
Station Type Date Time Source
SCIE METAR 2021/05/12 02:00 UTC NOAA

SCIE 120200Z 20009KT CAVOK 11/08 Q1018


Station Type Date Time Source
SCIE Decoded METAR 2021/05/12 02:00 UTC NOAA

Concepcion, Chile (SCIE) 36-46S 073-03W
May 11, 2021 - 10:00 PM EDT / 2021.05.12 0200 UTC
Wind: from the SSW (200 degrees) at 10 MPH (9 KT):0
Visibility: greater than 7 mile(s):0
Temperature: 51 F (11 C)
Dew Point: 46 F (8 C)
Relative Humidity: 81%
Pressure (altimeter): 30.06 in. Hg (1018 hPa)
ob: SCIE 120200Z 20009KT CAVOK 11/08 Q1018
cycle: 2

Station Type Date Time Source
SCIE TAF 2021/05/12 00:00 UTC NOAA

TAF SCIE 112213Z 1200/1224 20006KT CAVOK TX18/1218Z TN07/1211Z
BECMG 1201/1203 SCT015
TEMPO 1208/1214 14004KT 7000 SCT010
BECMG 1218/1220 23010KT

Example: see airport list